createdAt,value
2023-04-26T00:02:18.692Z,2.41
2023-04-26T00:04:47.839Z,2.29
2023-04-26T00:07:16.227Z,2.39
2023-04-26T00:09:46.248Z,2.29
2023-04-26T00:12:13.803Z,2.23
2023-04-26T00:14:40.651Z,2.31
2023-04-26T00:17:07.756Z,2.33
2023-04-26T00:19:36.929Z,2.28
2023-04-26T00:22:05.812Z,2.34
2023-04-26T00:24:32.914Z,2.21
2023-04-26T00:27:00.836Z,2.23
2023-04-26T00:29:27.870Z,2.03
2023-04-26T00:31:55.809Z,2.01
2023-04-26T00:34:23.520Z,2.09
2023-04-26T00:36:50.223Z,1.91
2023-04-26T00:39:17.012Z,1.82
2023-04-26T00:41:43.582Z,1.95
2023-04-26T00:44:13.163Z,2.11
2023-04-26T00:46:47.894Z,2.05
2023-04-26T00:49:17.395Z,1.93
2023-04-26T00:51:45.065Z,1.94
2023-04-26T00:54:14.797Z,1.73
2023-04-26T00:56:59.554Z,1.64
2023-04-26T00:59:36.840Z,1.63
2023-04-26T01:02:03.946Z,1.64
2023-04-26T01:04:30.916Z,1.57
2023-04-26T01:07:03.932Z,1.66
2023-04-26T01:09:33.566Z,1.70
2023-04-26T01:12:01.065Z,1.74
2023-04-26T01:14:35.937Z,1.65
2023-04-26T01:17:03.477Z,1.68
2023-04-26T01:19:30.175Z,1.54
2023-04-26T01:21:56.873Z,1.62
2023-04-26T01:24:23.578Z,1.54
2023-04-26T01:26:52.484Z,1.65
2023-04-26T01:29:22.256Z,1.53
2023-04-26T01:31:49.172Z,1.56
2023-04-26T01:34:16.151Z,1.56
2023-04-26T01:36:46.099Z,1.57
2023-04-26T01:39:15.190Z,1.72
2023-04-26T01:41:42.603Z,1.67
2023-04-26T01:44:09.334Z,1.48
2023-04-26T01:46:40.057Z,1.42
2023-04-26T01:49:06.864Z,1.40
2023-04-26T01:51:34.426Z,1.36
2023-04-26T01:54:01.123Z,1.30
2023-04-26T01:56:27.847Z,1.26
2023-04-26T01:58:59.928Z,1.40
2023-04-26T02:01:26.786Z,1.42
2023-04-26T02:03:53.466Z,1.31
2023-04-26T02:06:21.406Z,1.25
2023-04-26T02:08:48.201Z,1.43
2023-04-26T02:11:17.275Z,1.33
2023-04-26T02:13:43.894Z,1.15
2023-04-26T02:16:10.692Z,1.00
2023-04-26T02:18:38.548Z,1.20
2023-04-26T02:21:08.564Z,0.97
2023-04-26T02:23:37.814Z,1.06
2023-04-26T02:26:04.651Z,1.28
2023-04-26T02:28:31.523Z,1.07
2023-04-26T02:30:58.543Z,1.00
2023-04-26T02:33:25.429Z,0.98
2023-04-26T02:35:55.314Z,0.96
2023-04-26T02:38:26.253Z,1.00
2023-04-26T02:41:03.398Z,0.81
2023-04-26T02:43:30.941Z,0.61
2023-04-26T02:46:00.931Z,0.84
2023-04-26T02:48:27.605Z,0.79
2023-04-26T02:50:54.276Z,0.77
2023-04-26T02:53:28.438Z,0.71
2023-04-26T02:55:55.232Z,0.64
2023-04-26T02:58:27.283Z,0.78
2023-04-26T03:01:00.457Z,0.96
2023-04-26T03:03:28.992Z,1.02
2023-04-26T03:05:56.476Z,0.91
2023-04-26T03:08:25.664Z,1.06
2023-04-26T03:10:54.768Z,1.04
2023-04-26T03:13:29.108Z,1.10
2023-04-26T03:15:57.644Z,0.99
2023-04-26T03:18:24.462Z,1.07
2023-04-26T03:21:01.602Z,1.04
2023-04-26T03:23:28.758Z,0.87
2023-04-26T03:25:55.631Z,0.70
2023-04-26T03:28:31.705Z,0.71
2023-04-26T03:30:58.433Z,0.72
2023-04-26T03:33:25.425Z,0.80
2023-04-26T03:36:03.113Z,0.82
2023-04-26T03:38:29.880Z,0.84
2023-04-26T03:40:56.875Z,0.75
2023-04-26T03:43:24.077Z,0.66
2023-04-26T03:45:53.984Z,0.63
2023-04-26T03:48:29.548Z,0.52
2023-04-26T03:50:56.237Z,0.50
2023-04-26T03:53:25.898Z,0.39
2023-04-26T03:55:55.000Z,0.35
2023-04-26T03:58:26.010Z,0.20
2023-04-26T04:00:56.632Z,0.12
2023-04-26T04:03:23.455Z,0.05
2023-04-26T04:05:51.731Z,0.32
2023-04-26T04:08:20.477Z,0.24
2023-04-26T04:10:54.883Z,0.42
2023-04-26T04:13:23.122Z,0.46
2023-04-26T04:15:49.819Z,0.63
2023-04-26T04:18:22.418Z,0.64
2023-04-26T04:20:50.373Z,0.47
2023-04-26T04:23:17.174Z,0.55
2023-04-26T04:25:45.521Z,0.58
2023-04-26T04:28:13.510Z,0.59
2023-04-26T04:30:44.242Z,0.75
2023-04-26T04:33:11.013Z,1.09
2023-04-26T04:35:37.891Z,1.28
2023-04-26T04:38:05.786Z,1.55
2023-04-26T04:40:40.187Z,1.92
2023-04-26T04:43:07.531Z,2.12
2023-04-26T04:45:35.634Z,2.55
2023-04-26T04:48:05.177Z,2.77
2023-04-26T04:50:32.253Z,3.06
2023-04-26T04:52:59.298Z,3.51
2023-04-26T04:55:26.610Z,3.77
2023-04-26T04:57:53.808Z,3.61
2023-04-26T05:00:21.226Z,4.12
2023-04-26T05:02:52.789Z,4.00
2023-04-26T05:05:20.039Z,4.22
2023-04-26T05:07:47.134Z,4.50
2023-04-26T05:10:21.936Z,4.60
2023-04-26T05:12:49.342Z,4.38
2023-04-26T05:15:16.193Z,4.38
2023-04-26T05:17:43.453Z,4.45
2023-04-26T05:20:22.597Z,4.16
2023-04-26T05:22:50.229Z,3.85
2023-04-26T05:25:26.076Z,3.68
2023-04-26T05:28:05.518Z,3.35
2023-04-26T05:31:00.115Z,3.45
2023-04-26T05:33:42.617Z,3.66
2023-04-26T05:36:16.480Z,3.47
2023-04-26T05:38:43.329Z,3.09
2023-04-26T05:41:10.030Z,3.10
2023-04-26T05:43:37.739Z,3.02
2023-04-26T05:46:05.285Z,2.82
2023-04-26T05:48:42.309Z,3.11
2023-04-26T05:51:09.038Z,3.31
2023-04-26T05:53:36.021Z,3.91
2023-04-26T05:56:10.341Z,4.87
2023-04-26T05:58:37.149Z,5.37
2023-04-26T06:01:04.443Z,5.28
2023-04-26T06:03:38.372Z,4.91
2023-04-26T06:06:05.499Z,4.81
2023-04-26T06:08:32.321Z,4.83
2023-04-26T06:10:59.023Z,4.88
2023-04-26T06:13:27.042Z,4.85
2023-04-26T06:16:01.610Z,4.97
2023-04-26T06:18:28.459Z,4.70
2023-04-26T06:20:57.585Z,4.54
2023-04-26T06:23:27.506Z,4.58
2023-04-26T06:25:55.671Z,4.67
2023-04-26T06:28:29.855Z,4.74
2023-04-26T06:30:59.161Z,4.67
2023-04-26T06:33:28.782Z,4.76
2023-04-26T06:35:55.601Z,4.90
2023-04-26T06:38:29.508Z,4.59
2023-04-26T06:40:57.378Z,4.45
2023-04-26T06:43:26.596Z,4.36
2023-04-26T06:45:59.806Z,4.27
2023-04-26T06:48:27.429Z,4.21
2023-04-26T06:50:55.977Z,4.39
2023-04-26T06:53:41.565Z,4.49
2023-04-26T06:56:15.547Z,5.01
2023-04-26T06:58:58.913Z,6.18
2023-04-26T07:01:29.392Z,5.80
2023-04-26T07:03:59.721Z,5.80
2023-04-26T07:06:28.979Z,5.42
2023-04-26T07:08:55.835Z,5.29
2023-04-26T07:11:24.672Z,5.73
2023-04-26T07:13:53.279Z,6.42
2023-04-26T07:16:26.590Z,6.33
2023-04-26T07:18:53.338Z,6.82
2023-04-26T07:21:20.059Z,6.54
2023-04-26T07:23:46.724Z,6.32
2023-04-26T07:26:22.330Z,7.08
2023-04-26T07:28:49.315Z,7.23
2023-04-26T07:31:16.634Z,7.22
2023-04-26T07:33:51.363Z,8.52
2023-04-26T07:36:18.339Z,8.28
2023-04-26T07:38:45.177Z,8.43
2023-04-26T07:41:13.014Z,7.46
2023-04-26T07:43:39.773Z,7.04
2023-04-26T07:46:09.003Z,8.01
2023-04-26T07:48:35.755Z,7.58
2023-04-26T07:51:10.263Z,7.41
2023-04-26T07:53:37.364Z,7.38
2023-04-26T07:56:06.111Z,7.61
2023-04-26T07:58:33.055Z,7.12
2023-04-26T08:01:00.549Z,6.31
2023-04-26T08:03:28.269Z,6.07
2023-04-26T08:05:59.183Z,6.08
2023-04-26T08:08:27.021Z,6.15
2023-04-26T08:10:54.010Z,6.10
2023-04-26T08:13:22.874Z,6.26
2023-04-26T08:15:49.673Z,6.53
2023-04-26T08:18:16.349Z,6.82
2023-04-26T08:20:43.048Z,7.51
2023-04-26T08:23:09.782Z,7.36
2023-04-26T08:25:36.474Z,7.76
2023-04-26T08:28:03.165Z,8.46
2023-04-26T08:30:30.038Z,8.22
2023-04-26T08:32:56.802Z,8.62
2023-04-26T08:35:23.613Z,8.51
2023-04-26T08:37:50.669Z,8.40
2023-04-26T08:40:23.815Z,7.87
2023-04-26T08:42:52.587Z,7.94
2023-04-26T08:45:21.003Z,7.62
2023-04-26T08:47:49.525Z,7.29
2023-04-26T08:50:21.013Z,7.52
2023-04-26T08:52:50.264Z,7.79
2023-04-26T08:55:18.385Z,8.43
2023-04-26T08:57:56.104Z,8.43
2023-04-26T09:00:23.534Z,8.81
2023-04-26T09:02:54.268Z,8.90
2023-04-26T09:05:24.676Z,8.45
2023-04-26T09:07:56.402Z,8.77
2023-04-26T09:10:23.458Z,8.11
2023-04-26T09:12:56.609Z,8.77
2023-04-26T09:15:26.524Z,8.64
2023-04-26T09:17:53.851Z,9.50
2023-04-26T09:20:27.243Z,9.59
2023-04-26T09:23:09.615Z,9.24
2023-04-26T09:25:36.488Z,8.69
2023-04-26T09:28:03.969Z,8.41
2023-04-26T09:30:31.352Z,8.24
2023-04-26T09:33:05.968Z,8.16
2023-04-26T09:35:36.569Z,8.49
2023-04-26T09:38:09.674Z,8.24
2023-04-26T09:40:44.353Z,7.93
2023-04-26T09:43:12.926Z,7.70
2023-04-26T09:45:46.814Z,7.43
2023-04-26T09:48:18.158Z,7.36
2023-04-26T09:50:48.400Z,7.27
2023-04-26T09:53:38.511Z,7.44
2023-04-26T09:56:18.929Z,7.53
2023-04-26T09:58:58.116Z,7.46
2023-04-26T10:01:25.881Z,7.67
2023-04-26T10:03:53.243Z,7.92
2023-04-26T10:06:20.204Z,8.22
2023-04-26T10:08:47.037Z,8.66
2023-04-26T10:11:14.232Z,9.01
2023-04-26T10:13:44.861Z,9.61
2023-04-26T10:16:11.768Z,9.95
2023-04-26T10:18:38.549Z,10.01
2023-04-26T10:21:15.268Z,9.80
2023-04-26T10:23:42.149Z,8.79
2023-04-26T10:26:48.519Z,8.22
2023-04-26T10:29:15.514Z,8.72
2023-04-26T10:32:01.797Z,8.52
2023-04-26T10:34:31.331Z,7.94
2023-04-26T10:37:14.815Z,7.96
2023-04-26T10:39:43.675Z,7.92
2023-04-26T10:42:30.785Z,8.28
2023-04-26T10:44:58.747Z,8.37
2023-04-26T10:47:28.863Z,8.24
2023-04-26T10:50:09.805Z,8.90
2023-04-26T10:52:38.403Z,9.23
2023-04-26T10:55:10.243Z,9.52
2023-04-26T10:57:53.933Z,9.53
2023-04-26T11:00:27.045Z,9.35
2023-04-26T11:02:59.502Z,9.01
2023-04-26T11:05:38.636Z,9.03
2023-04-26T11:08:21.172Z,8.85
2023-04-26T11:10:59.506Z,8.78
2023-04-26T11:13:26.287Z,8.89
2023-04-26T11:15:54.607Z,9.04
2023-04-26T11:18:22.778Z,9.44
2023-04-26T11:20:49.483Z,9.11
2023-04-26T11:23:18.735Z,9.95
2023-04-26T11:25:45.540Z,10.00
2023-04-26T11:28:12.361Z,9.74
2023-04-26T11:30:39.004Z,9.78
2023-04-26T11:33:05.730Z,9.11
2023-04-26T11:35:35.849Z,9.09
2023-04-26T11:38:04.750Z,9.08
2023-04-26T11:40:32.406Z,9.25
2023-04-26T11:43:01.415Z,8.79
2023-04-26T11:45:28.378Z,8.61
2023-04-26T11:47:55.399Z,8.48
2023-04-26T11:50:26.741Z,8.35
2023-04-26T11:52:57.367Z,8.31
2023-04-26T11:55:29.060Z,8.92
2023-04-26T11:58:09.439Z,9.17
2023-04-26T12:00:36.099Z,9.07
2023-04-26T12:03:11.081Z,9.14
2023-04-26T12:05:38.539Z,9.22
2023-04-26T12:08:05.360Z,9.15
2023-04-26T12:10:41.351Z,8.44
2023-04-26T12:13:07.992Z,8.49
2023-04-26T12:15:34.976Z,8.72
2023-04-26T12:18:10.860Z,8.25
2023-04-26T12:20:40.035Z,8.47
2023-04-26T12:23:08.872Z,8.59
2023-04-26T12:25:39.359Z,8.59
2023-04-26T12:28:12.300Z,8.75
2023-04-26T12:30:40.336Z,8.87
2023-04-26T12:33:17.249Z,8.95
2023-04-26T12:35:44.842Z,9.01
2023-04-26T12:38:12.289Z,9.10
2023-04-26T12:40:49.945Z,8.81
2023-04-26T12:43:17.125Z,8.94
2023-04-26T12:46:00.637Z,9.17
2023-04-26T12:48:30.458Z,9.01
2023-04-26T12:50:57.306Z,9.20
2023-04-26T12:53:31.589Z,9.57
2023-04-26T12:55:58.713Z,9.75
2023-04-26T12:58:31.552Z,9.89
2023-04-26T13:00:58.350Z,9.73
2023-04-26T13:03:27.762Z,9.71
2023-04-26T13:05:57.663Z,9.08
2023-04-26T13:08:24.550Z,9.08
2023-04-26T13:11:00.001Z,8.93
2023-04-26T13:13:39.943Z,8.52
2023-04-26T13:16:13.465Z,8.25
2023-04-26T13:18:41.155Z,7.87
2023-04-26T13:21:08.036Z,7.83
2023-04-26T13:23:34.727Z,7.77
2023-04-26T13:26:01.698Z,7.70
2023-04-26T13:28:28.358Z,7.91
2023-04-26T13:30:56.003Z,7.83
2023-04-26T13:33:27.484Z,8.02
2023-04-26T13:35:59.520Z,8.37
2023-04-26T13:38:29.813Z,8.46
2023-04-26T13:40:57.872Z,8.77
2023-04-26T13:43:33.750Z,9.36
2023-04-26T13:46:01.430Z,8.84
2023-04-26T13:48:28.329Z,9.12
2023-04-26T13:51:03.975Z,9.37
2023-04-26T13:53:31.666Z,9.32
2023-04-26T13:55:58.486Z,8.75
2023-04-26T13:58:44.025Z,8.97
2023-04-26T14:01:16.948Z,8.89
2023-04-26T14:03:43.852Z,8.99
2023-04-26T14:06:11.325Z,9.41
2023-04-26T14:08:38.022Z,9.51
2023-04-26T14:11:05.004Z,9.26
2023-04-26T14:13:34.634Z,9.75
2023-04-26T14:16:01.368Z,9.66
2023-04-26T14:18:28.070Z,9.47
2023-04-26T14:21:15.232Z,9.52
2023-04-26T14:23:41.900Z,9.62
2023-04-26T14:26:08.735Z,9.59
2023-04-26T14:28:36.491Z,9.48
2023-04-26T14:31:03.181Z,9.91
2023-04-26T14:33:29.931Z,10.26
2023-04-26T14:35:59.115Z,10.34
2023-04-26T14:38:25.867Z,10.17
2023-04-26T14:40:55.317Z,10.62
2023-04-26T14:43:29.155Z,10.74
2023-04-26T14:45:58.889Z,10.73
2023-04-26T14:48:26.255Z,10.38
2023-04-26T14:50:59.286Z,10.40
2023-04-26T14:53:28.862Z,10.23
2023-04-26T14:55:59.131Z,9.98
2023-04-26T14:58:28.603Z,9.60
2023-04-26T15:00:58.941Z,9.42
2023-04-26T15:03:28.985Z,9.29
2023-04-26T15:06:00.123Z,9.26
2023-04-26T15:08:27.449Z,8.88
2023-04-26T15:11:01.784Z,8.57
2023-04-26T15:13:28.528Z,8.35
2023-04-26T15:15:57.688Z,8.64
2023-04-26T15:18:28.734Z,8.78
2023-04-26T15:20:57.686Z,8.51
2023-04-26T15:23:25.160Z,8.51
2023-04-26T15:25:52.133Z,8.53
2023-04-26T15:28:18.868Z,8.38
2023-04-26T15:30:49.384Z,8.77
2023-04-26T15:33:16.971Z,9.03
2023-04-26T15:35:43.872Z,9.46
2023-04-26T15:38:10.570Z,9.42
2023-04-26T15:40:38.231Z,9.82
2023-04-26T15:43:05.055Z,9.63
2023-04-26T15:45:31.698Z,10.08
2023-04-26T15:47:58.511Z,10.22
2023-04-26T15:50:25.218Z,10.52
2023-04-26T15:52:52.142Z,10.45
2023-04-26T15:55:21.936Z,10.01
2023-04-26T15:57:48.622Z,9.64
2023-04-26T16:00:16.002Z,9.21
2023-04-26T16:02:45.760Z,9.14
2023-04-26T16:05:12.605Z,8.88
2023-04-26T16:07:40.173Z,8.88
2023-04-26T16:10:09.581Z,8.85
2023-04-26T16:12:41.605Z,8.69
2023-04-26T16:15:11.197Z,8.50
2023-04-26T16:17:38.743Z,8.51
2023-04-26T16:20:07.213Z,8.73
2023-04-26T16:22:45.265Z,8.60
2023-04-26T16:25:12.145Z,8.52
2023-04-26T16:27:38.910Z,8.36
2023-04-26T16:30:17.166Z,8.25
2023-04-26T16:32:43.871Z,8.20
2023-04-26T16:35:11.066Z,7.78
2023-04-26T16:37:45.981Z,7.70
2023-04-26T16:40:13.452Z,7.68
2023-04-26T16:42:44.466Z,7.59
2023-04-26T16:45:18.721Z,7.64
2023-04-26T16:47:45.448Z,7.48
2023-04-26T16:50:12.553Z,7.40
2023-04-26T16:52:39.261Z,7.24
2023-04-26T16:55:08.881Z,7.21
2023-04-26T16:57:35.678Z,7.15
2023-04-26T17:00:03.722Z,7.06
2023-04-26T17:02:30.984Z,7.11
2023-04-26T17:04:58.097Z,7.05
2023-04-26T17:07:50.553Z,6.98
2023-04-26T17:10:17.519Z,6.94
2023-04-26T17:12:44.219Z,6.95
2023-04-26T17:15:11.937Z,6.93
2023-04-26T17:17:39.045Z,6.91
2023-04-26T17:20:13.411Z,6.94
2023-04-26T17:22:40.766Z,6.85
2023-04-26T17:25:08.199Z,6.83
2023-04-26T17:27:37.683Z,6.78
2023-04-26T17:30:12.600Z,6.75
2023-04-26T17:32:39.381Z,6.75
2023-04-26T17:35:08.806Z,6.68
2023-04-26T17:37:35.558Z,6.61
2023-04-26T17:40:08.345Z,6.59
2023-04-26T17:42:41.871Z,6.53
2023-04-26T17:45:13.542Z,6.46
2023-04-26T17:47:41.623Z,6.37
2023-04-26T17:50:11.296Z,6.34
2023-04-26T17:52:38.397Z,6.29
2023-04-26T17:55:08.156Z,6.30
2023-04-26T17:57:40.580Z,6.23
2023-04-26T18:00:10.464Z,6.22
2023-04-26T18:02:39.697Z,6.19
2023-04-26T18:05:16.381Z,6.23
2023-04-26T18:07:43.072Z,6.13
2023-04-26T18:10:09.964Z,6.04
2023-04-26T18:12:37.777Z,6.00
2023-04-26T18:15:10.391Z,5.93
2023-04-26T18:17:39.250Z,5.84
2023-04-26T18:20:17.182Z,5.86
2023-04-26T18:22:44.231Z,5.80
2023-04-26T18:25:11.166Z,5.80
2023-04-26T18:27:37.904Z,5.75
2023-04-26T18:30:08.804Z,5.71
2023-04-26T18:32:38.117Z,5.71
2023-04-26T18:35:08.669Z,5.64
2023-04-26T18:37:42.674Z,5.58
2023-04-26T18:40:09.913Z,5.57
2023-04-26T18:42:38.775Z,5.47
2023-04-26T18:45:09.162Z,5.44
2023-04-26T18:47:41.907Z,5.42
2023-04-26T18:50:08.870Z,5.34
2023-04-26T18:52:37.553Z,5.34
2023-04-26T18:55:07.498Z,5.31
2023-04-26T18:57:39.623Z,5.25
2023-04-26T19:00:08.322Z,5.28
2023-04-26T19:02:40.303Z,5.21
2023-04-26T19:05:09.682Z,5.20
2023-04-26T19:07:37.062Z,5.11
2023-04-26T19:10:11.543Z,5.10
2023-04-26T19:12:38.323Z,5.08
2023-04-26T19:15:05.668Z,5.07
2023-04-26T19:17:35.602Z,4.99
2023-04-26T19:20:02.953Z,4.94
2023-04-26T19:22:30.070Z,4.92
2023-04-26T19:24:57.332Z,4.84
2023-04-26T19:27:24.360Z,4.78
2023-04-26T19:29:51.169Z,4.70
2023-04-26T19:32:19.987Z,4.67
2023-04-26T19:34:46.782Z,4.63
2023-04-26T19:37:13.563Z,4.61
2023-04-26T19:39:40.600Z,4.58
2023-04-26T19:42:07.367Z,4.55
2023-04-26T19:44:34.110Z,4.51
2023-04-26T19:47:04.479Z,4.54
2023-04-26T19:49:31.464Z,4.52
2023-04-26T19:51:58.265Z,4.46
2023-04-26T19:54:24.978Z,4.38
2023-04-26T19:56:52.039Z,4.36
2023-04-26T19:59:21.394Z,4.33
2023-04-26T20:01:53.193Z,4.32
2023-04-26T20:04:21.410Z,4.32
2023-04-26T20:06:53.113Z,4.31
2023-04-26T20:09:19.983Z,4.31
2023-04-26T20:11:49.961Z,4.29
2023-04-26T20:14:26.144Z,4.30
2023-04-26T20:16:53.012Z,4.30
2023-04-26T20:19:19.953Z,4.30
2023-04-26T20:21:56.647Z,4.30
2023-04-26T20:24:24.202Z,4.38
2023-04-26T20:26:51.001Z,4.41
2023-04-26T20:29:17.856Z,4.42
2023-04-26T20:31:52.091Z,4.45
2023-04-26T20:34:18.966Z,4.43
2023-04-26T20:36:48.449Z,4.48
2023-04-26T20:39:22.781Z,4.46
2023-04-26T20:41:49.470Z,4.44
2023-04-26T20:44:18.726Z,4.43
2023-04-26T20:46:47.975Z,4.46
2023-04-26T20:49:21.844Z,4.49
2023-04-26T20:51:48.591Z,4.49
2023-04-26T20:54:23.117Z,4.48
2023-04-26T20:56:50.040Z,4.47
2023-04-26T20:59:17.693Z,4.48
2023-04-26T21:01:53.855Z,4.58
2023-04-26T21:04:21.206Z,4.59
2023-04-26T21:06:50.533Z,4.58
2023-04-26T21:09:17.236Z,4.61
2023-04-26T21:11:52.684Z,4.67
2023-04-26T21:14:19.374Z,4.63
2023-04-26T21:16:53.672Z,4.59
2023-04-26T21:19:20.598Z,4.58
2023-04-26T21:21:49.763Z,4.68
2023-04-26T21:24:16.455Z,4.60
2023-04-26T21:26:50.358Z,4.59
2023-04-26T21:29:19.583Z,4.60
2023-04-26T21:31:48.679Z,4.52
2023-04-26T21:34:21.471Z,4.46
2023-04-26T21:36:50.403Z,4.58
2023-04-26T21:39:25.202Z,4.52
2023-04-26T21:41:51.811Z,4.55
2023-04-26T21:44:21.482Z,4.52
2023-04-26T21:46:53.559Z,4.52
2023-04-26T21:49:28.923Z,4.49
2023-04-26T21:51:55.668Z,4.48
2023-04-26T21:54:22.521Z,4.42
2023-04-26T21:56:56.705Z,4.45
2023-04-26T21:59:23.388Z,4.40
2023-04-26T22:01:50.094Z,4.45
2023-04-26T22:04:17.064Z,4.50
2023-04-26T22:06:43.855Z,4.47
2023-04-26T22:09:11.587Z,4.44
2023-04-26T22:11:38.477Z,4.42
2023-04-26T22:14:05.209Z,4.38
2023-04-26T22:16:32.080Z,4.44
2023-04-26T22:18:58.878Z,4.39
2023-04-26T22:21:28.413Z,4.36
2023-04-26T22:23:55.089Z,4.35
2023-04-26T22:26:21.852Z,4.35
2023-04-26T22:28:48.488Z,4.35
2023-04-26T22:31:15.134Z,4.33
2023-04-26T22:33:51.557Z,4.35
2023-04-26T22:36:18.224Z,4.35
2023-04-26T22:38:44.920Z,4.31
2023-04-26T22:41:13.669Z,4.23
2023-04-26T22:43:41.624Z,4.17
2023-04-26T22:46:08.322Z,4.16
2023-04-26T22:48:35.036Z,4.14
2023-04-26T22:51:02.186Z,4.23
2023-04-26T22:53:28.830Z,4.21
2023-04-26T22:56:02.815Z,4.16
2023-04-26T22:58:29.801Z,4.17
2023-04-26T23:00:58.988Z,4.14
2023-04-26T23:03:28.415Z,4.10
2023-04-26T23:06:03.555Z,4.01
2023-04-26T23:08:30.209Z,3.97
2023-04-26T23:10:59.414Z,3.98
2023-04-26T23:13:29.574Z,3.93
2023-04-26T23:16:14.548Z,3.87
2023-04-26T23:18:44.558Z,3.85
2023-04-26T23:21:11.349Z,3.88
2023-04-26T23:23:42.798Z,3.84
2023-04-26T23:26:09.914Z,3.84
2023-04-26T23:28:36.588Z,3.73
2023-04-26T23:31:03.374Z,3.71
2023-04-26T23:33:30.009Z,3.67
2023-04-26T23:35:59.684Z,3.56
2023-04-26T23:38:28.968Z,3.52
2023-04-26T23:40:58.669Z,3.45
2023-04-26T23:43:28.294Z,3.51
2023-04-26T23:45:58.605Z,3.53
2023-04-26T23:48:33.077Z,3.45
2023-04-26T23:51:00.318Z,3.54
2023-04-26T23:53:29.949Z,3.48
2023-04-26T23:55:58.563Z,3.55
2023-04-26T23:58:32.263Z,3.43
